Time;durP1;ratioP1;P1;durP2;ratioP2;P2;SDS_P1;SDS_P2;PMS_P1;PMS_P2;Temp;Humidity;BMP_temperature;BMP_pressure;BME280_temperature;BME280_humidity;BME280_pressure;Samples;Min_cycle;Max_cycle;Signal;HPM_P1;HPM_P2
2021/08/02 00:01:31;;;;;;;2.70;1.97;;;;;;;16.56;64.70;100801.84;5972732;29;20236;-52
2021/08/02 00:05:00;;;;;;;5.70;1.73;;;;;;;16.37;65.08;100801.59;5968036;29;20244;-52
2021/08/02 00:08:23;;;;;;;4.63;1.90;;;;;;;16.56;64.44;100804.47;5969537;29;20231;-50
2021/08/02 00:11:46;;;;;;;3.70;1.77;;;;;;;16.78;63.71;100811.63;5970356;29;20240;-54
2021/08/02 00:15:09;;;;;;;1.67;1.57;;;;;;;16.44;64.52;100802.25;5969011;29;20243;-54
2021/08/02 00:18:31;;;;;;;3.10;1.87;;;;;;;16.56;64.36;100804.47;5972061;29;20255;-53
2021/08/02 00:21:52;;;;;;;3.30;1.87;;;;;;;16.53;64.76;100809.81;5967348;29;20285;-51
2021/08/02 00:25:17;;;;;;;4.03;2.20;;;;;;;16.48;64.68;100814.41;5965592;29;21788;-50
2021/08/02 00:28:38;;;;;;;2.97;1.70;;;;;;;15.62;67.53;100810.06;5965229;29;20586;-51
2021/08/02 00:32:00;;;;;;;3.23;1.80;;;;;;;15.89;66.28;100810.16;5970398;29;20331;-50
2021/08/02 00:35:22;;;;;;;3.80;3.10;;;;;;;16.30;65.72;100819.34;5967436;29;20266;-52
2021/08/02 00:38:47;;;;;;;7.03;2.23;;;;;;;16.01;66.41;100804.50;5971463;29;20220;-54
2021/08/02 00:42:42;;;;;;;3.40;1.47;;;;;;;16.18;65.58;100803.97;5971129;29;20232;-51
2021/08/02 00:46:05;;;;;;;2.67;1.70;;;;;;;16.16;65.26;100812.81;5966951;29;20804;-52
2021/08/02 00:49:27;;;;;;;3.13;1.70;;;;;;;15.98;65.90;100799.38;5969395;29;20240;-52
2021/08/02 00:52:54;;;;;;;4.50;1.53;;;;;;;16.40;64.46;100800.63;5973086;29;20263;-52
2021/08/02 00:56:19;;;;;;;3.23;2.30;;;;;;;16.28;64.79;100801.91;5954612;29;20513;-50
2021/08/02 00:59:44;;;;;;;4.57;1.43;;;;;;;16.23;65.13;100807.31;5971059;29;20591;-53
2021/08/02 01:03:08;;;;;;;2.60;1.77;;;;;;;16.44;64.58;100810.13;5967007;29;20580;-52
2021/08/02 01:06:30;;;;;;;3.53;1.27;;;;;;;16.40;64.80;100800.63;5968518;29;20232;-52
2021/08/02 01:09:53;;;;;;;2.23;1.70;;;;;;;15.76;66.36;100804.44;5961907;29;20338;-51
2021/08/02 01:13:16;;;;;;;5.17;2.10;;;;;;;16.11;65.58;100799.81;5971555;29;20635;-48
2021/08/02 01:16:41;;;;;;;2.13;1.80;;;;;;;16.23;64.83;100803.84;5978140;29;20232;-51
2021/08/02 01:20:05;;;;;;;3.50;1.73;;;;;;;16.10;65.70;100809.47;5972830;29;20342;-48
2021/08/02 01:23:29;;;;;;;2.27;1.30;;;;;;;16.33;64.83;100807.88;5971413;29;20235;-52
2021/08/02 01:27:25;;;;;;;3.23;1.67;;;;;;;16.29;64.53;100808.88;5986769;29;20326;-51
2021/08/02 01:30:47;;;;;;;4.13;1.50;;;;;;;16.21;64.88;100813.53;5976794;29;20821;-49
2021/08/02 01:34:08;;;;;;;4.33;1.43;;;;;;;16.29;64.71;100820.25;5972058;29;20236;-51
2021/08/02 01:37:30;;;;;;;4.13;2.03;;;;;;;16.10;65.88;100808.63;5972099;29;20236;-51
2021/08/02 01:40:56;;;;;;;3.97;1.90;;;;;;;15.88;66.42;100825.06;5965762;29;20315;-51
2021/08/02 01:44:18;;;;;;;1.47;1.33;;;;;;;16.31;65.08;100823.69;5972630;29;20244;-52
2021/08/02 01:47:50;;;;;;;4.67;2.73;;;;;;;15.86;66.47;100821.63;5970057;29;20240;-48
2021/08/02 01:51:18;;;;;;;2.27;1.70;;;;;;;16.03;65.99;100817.59;5967785;29;20247;-49
2021/08/02 01:54:44;;;;;;;5.93;1.77;;;;;;;16.11;65.57;100826.97;5984443;29;20239;-50
2021/08/02 01:58:10;;;;;;;2.70;1.57;;;;;;;15.75;66.76;100821.94;5968755;29;20240;-53
2021/08/02 02:01:49;;;;;;;3.03;1.80;;;;;;;15.78;66.34;100813.13;5983815;29;20236;-52
2021/08/02 02:05:15;;;;;;;5.63;2.03;;;;;;;15.67;66.76;100820.44;5972059;29;20243;-51
2021/08/02 02:08:41;;;;;;;2.43;1.10;;;;;;;15.62;67.42;100822.31;5971767;29;20239;-51
2021/08/02 02:12:12;;;;;;;3.23;1.23;;;;;;;15.50;67.82;100815.69;5971835;29;20267;-53
2021/08/02 02:15:36;;;;;;;3.30;1.73;;;;;;;15.78;66.91;100822.75;5966590;29;20286;-50
2021/08/02 02:19:02;;;;;;;4.47;1.77;;;;;;;15.80;66.43;100826.19;5973024;29;20232;-53
2021/08/02 02:22:25;;;;;;;4.07;1.40;;;;;;;15.73;66.66;100821.13;5971535;29;20236;-47
2021/08/02 02:25:48;;;;;;;4.03;1.60;;;;;;;15.61;67.09;100810.13;5963610;29;20240;-49
2021/08/02 02:29:16;;;;;;;6.10;1.57;;;;;;;15.74;66.71;100820.25;5965550;29;20569;-50
2021/08/02 02:32:40;;;;;;;5.30;1.93;;;;;;;15.04;68.69;100825.72;5982943;29;20330;-46
2021/08/02 02:36:08;;;;;;;3.27;1.30;;;;;;;15.63;66.70;100824.91;5965344;29;20247;-48
2021/08/02 02:39:31;;;;;;;3.43;1.90;;;;;;;15.48;67.00;100831.47;5961589;29;20244;-52
2021/08/02 02:42:52;;;;;;;6.40;1.80;;;;;;;15.62;66.65;100823.19;5973414;29;20235;-50
2021/08/02 02:46:18;;;;;;;4.27;2.17;;;;;;;15.54;66.66;100825.19;5961630;29;20235;-47
2021/08/02 02:49:42;;;;;;;4.20;1.30;;;;;;;15.53;66.95;100828.72;5970902;29;20239;-51
2021/08/02 02:53:05;;;;;;;3.23;1.90;;;;;;;15.71;66.20;100829.94;5968126;29;20236;-51
2021/08/02 02:56:30;;;;;;;6.10;1.80;;;;;;;15.63;66.31;100831.94;5970640;29;20240;-52
2021/08/02 02:59:51;;;;;;;4.23;1.97;;;;;;;15.40;67.01;100828.22;5981121;29;20235;-52
2021/08/02 03:03:19;;;;;;;1.50;1.17;;;;;;;15.92;65.25;100844.22;5973301;29;20248;-48
2021/08/02 03:06:43;;;;;;;4.20;1.60;;;;;;;15.52;66.31;100843.59;5965239;29;20236;-53
2021/08/02 03:10:05;;;;;;;3.00;1.60;;;;;;;15.52;66.39;100846.22;5983917;29;20572;-50
2021/08/02 03:13:27;;;;;;;3.10;1.43;;;;;;;15.51;66.51;100873.38;5973795;29;20855;-48
2021/08/02 03:16:48;;;;;;;3.67;1.47;;;;;;;15.25;67.51;100868.00;5967344;29;20236;-49
2021/08/02 03:20:10;;;;;;;4.10;1.50;;;;;;;15.50;66.71;100858.53;5974004;29;20318;-51
2021/08/02 03:23:38;;;;;;;4.00;1.47;;;;;;;15.45;66.64;100863.06;5964381;29;20244;-54
2021/08/02 03:27:05;;;;;;;2.83;1.50;;;;;;;15.23;67.53;100859.31;5967810;29;20232;-49
2021/08/02 03:30:27;;;;;;;3.60;1.73;;;;;;;15.18;67.95;100874.31;5965490;29;20240;-51
2021/08/02 03:33:50;;;;;;;5.30;1.83;;;;;;;15.14;68.55;100858.66;5965702;29;20231;-54
2021/08/02 03:37:16;;;;;;;4.53;1.93;;;;;;;15.64;66.37;100857.25;5966342;29;20796;-53
2021/08/02 03:40:39;;;;;;;3.13;1.80;;;;;;;15.55;66.74;100854.00;5969103;29;20319;-51
2021/08/02 03:44:01;;;;;;;3.43;1.50;;;;;;;15.49;66.95;100864.69;5969463;29;20245;-52
2021/08/02 03:47:23;;;;;;;2.77;1.70;;;;;;;15.40;67.31;100864.94;5967421;29;20604;-51
2021/08/02 03:50:44;;;;;;;4.40;1.70;;;;;;;15.61;66.50;100857.38;5965092;29;20236;-51
2021/08/02 03:54:06;;;;;;;3.00;1.77;;;;;;;15.95;65.05;100867.75;5972675;29;20243;-50
2021/08/02 03:57:30;;;;;;;9.80;2.03;;;;;;;15.87;65.53;100875.84;5969917;29;20240;-51
2021/08/02 04:00:52;;;;;;;5.27;2.57;;;;;;;15.61;66.26;100867.88;5967318;29;20311;-50
2021/08/02 04:04:13;;;;;;;5.73;1.83;;;;;;;15.51;66.67;100873.38;5968459;29;20240;-47
2021/08/02 04:07:34;;;;;;;2.67;1.93;;;;;;;15.78;66.11;100881.41;5969569;29;20236;-50
2021/08/02 04:10:56;;;;;;;7.40;2.00;;;;;;;15.93;64.92;100878.28;5971053;29;20240;-53
2021/08/02 04:14:18;;;;;;;2.20;1.50;;;;;;;15.28;67.04;100881.03;5968098;29;20240;-51
2021/08/02 04:17:39;;;;;;;3.33;1.53;;;;;;;15.51;66.63;100889.13;5966018;29;20521;-52
2021/08/02 04:21:00;;;;;;;4.10;2.23;;;;;;;15.11;67.90;100879.72;5968280;29;20235;-47
2021/08/02 04:24:21;;;;;;;4.63;2.23;;;;;;;15.89;65.69;100875.81;5969028;29;20735;-52
2021/08/02 04:27:42;;;;;;;2.30;1.40;;;;;;;15.34;66.92;100883.50;5974170;29;20244;-49
2021/08/02 04:31:05;;;;;;;5.00;1.73;;;;;;;15.09;68.24;100886.78;5968557;29;20231;-48
2021/08/02 04:34:25;;;;;;;6.27;2.23;;;;;;;15.25;68.22;100878.50;5966821;29;20248;-52
2021/08/02 04:37:46;;;;;;;3.73;1.93;;;;;;;15.19;68.54;100882.13;5970309;29;20264;-50
2021/08/02 04:41:07;;;;;;;3.27;1.80;;;;;;;15.10;68.80;100885.00;5973179;29;20232;-52
2021/08/02 04:44:29;;;;;;;2.40;1.77;;;;;;;15.34;68.45;100886.13;5970411;29;20243;-51
2021/08/02 04:47:51;;;;;;;2.53;1.70;;;;;;;15.75;66.81;100884.09;5970474;29;20232;-54
2021/08/02 04:51:13;;;;;;;4.50;2.00;;;;;;;15.42;68.13;100883.28;5964506;29;20228;-53
2021/08/02 04:54:33;;;;;;;3.47;2.20;;;;;;;15.51;67.88;100891.75;5972463;29;20228;-51
2021/08/02 04:57:54;;;;;;;5.13;1.97;;;;;;;15.19;68.74;100894.41;5963349;29;20236;-51
2021/08/02 05:01:15;;;;;;;7.17;2.10;;;;;;;15.40;68.00;100906.94;5967982;29;20315;-48
2021/08/02 05:04:37;;;;;;;5.10;1.93;;;;;;;15.74;66.94;100901.63;5963264;29;20615;-49
2021/08/02 05:07:58;;;;;;;4.57;2.10;;;;;;;15.60;67.43;100913.38;5972598;29;21077;-53
2021/08/02 05:11:19;;;;;;;2.50;2.00;;;;;;;15.53;67.89;100910.09;5962525;29;20271;-53
2021/08/02 05:14:40;;;;;;;4.57;2.20;;;;;;;15.82;66.84;100917.16;5968863;29;20239;-46
2021/08/02 05:18:02;;;;;;;3.23;1.60;;;;;;;15.70;67.23;100920.09;5972470;29;20228;-48
2021/08/02 05:21:24;;;;;;;9.67;2.20;;;;;;;15.54;67.83;100924.91;5965238;29;20315;-51
2021/08/02 05:24:45;;;;;;;4.57;1.63;;;;;;;15.56;68.35;100917.84;5968214;29;20232;-48
2021/08/02 05:28:06;;;;;;;2.27;2.07;;;;;;;14.83;71.11;100915.44;5964828;29;20240;-52
2021/08/02 05:31:27;;;;;;;5.10;2.00;;;;;;;15.03;71.54;100910.53;5972545;29;20595;-48
2021/08/02 05:34:48;;;;;;;4.90;1.83;;;;;;;14.93;71.13;100922.19;5963940;29;20248;-52
2021/08/02 05:38:10;;;;;;;7.57;2.50;;;;;;;15.51;69.08;100925.03;5966219;29;20240;-52
2021/08/02 05:41:31;;;;;;;3.67;1.80;;;;;;;15.13;70.60;100922.50;5963347;29;20336;-53
2021/08/02 05:44:52;;;;;;;2.97;2.03;;;;;;;15.33;69.81;100915.88;5976412;29;20261;-55
2021/08/02 05:48:13;;;;;;;4.10;1.93;;;;;;;15.56;68.89;100926.59;5957188;29;20243;-51
2021/08/02 05:51:34;;;;;;;6.27;2.17;;;;;;;15.50;69.43;100926.75;5964321;29;20252;-51
2021/08/02 05:54:56;;;;;;;5.23;2.13;;;;;;;15.59;68.81;100912.53;5968607;29;20244;-54
2021/08/02 05:58:17;;;;;;;3.83;1.90;;;;;;;15.81;68.00;100920.69;5971015;29;20261;-51
2021/08/02 06:01:39;;;;;;;14.20;3.03;;;;;;;15.93;67.68;100917.69;5962132;29;20236;-52
2021/08/02 06:05:00;;;;;;;4.78;2.30;;;;;;;16.16;66.11;100897.75;5958993;29;20760;-50
2021/08/02 06:08:20;;;;;;;2.83;2.53;;;;;;;15.95;66.91;100930.78;5964271;29;20260;-53
2021/08/02 06:11:43;;;;;;;3.97;2.20;;;;;;;15.62;67.74;100917.69;5968333;29;20251;-54
2021/08/02 06:15:05;;;;;;;5.70;2.13;;;;;;;15.89;67.06;100931.81;5968297;29;20327;-54
2021/08/02 06:18:27;;;;;;;6.97;2.57;;;;;;;16.30;64.80;100911.34;5963441;29;20236;-53
2021/08/02 06:21:48;;;;;;;3.33;1.90;;;;;;;16.60;63.03;100924.41;5965709;29;20232;-49
2021/08/02 06:25:09;;;;;;;2.27;1.70;;;;;;;16.90;62.25;100919.06;5958202;29;20292;-47
2021/08/02 06:28:32;;;;;;;2.47;1.70;;;;;;;16.91;61.97;100918.16;5957106;29;20248;-53
2021/08/02 06:31:53;;;;;;;2.33;1.50;;;;;;;16.65;62.35;100918.97;5964392;29;22157;-48
2021/08/02 06:35:14;;;;;;;2.50;1.47;;;;;;;16.50;63.21;100936.97;5956522;29;20524;-46
2021/08/02 06:38:34;;;;;;;3.90;1.40;;;;;;;16.98;62.22;100939.84;5963717;29;20827;-47
2021/08/02 06:41:55;;;;;;;2.80;1.43;;;;;;;16.45;63.46;100936.25;5969827;29;20240;-47
2021/08/02 06:45:18;;;;;;;6.13;2.23;;;;;;;17.39;62.01;100933.16;5969897;29;21103;-47
2021/08/02 06:48:40;;;;;;;5.07;1.95;;;;;;;17.03;62.73;100936.16;5966746;29;20244;-49
2021/08/02 06:52:01;;;;;;;4.77;1.80;;;;;;;17.80;60.45;100941.31;5965930;29;20614;-50
2021/08/02 06:55:22;;;;;;;3.38;1.60;;;;;;;17.36;62.67;100941.16;5959333;29;20247;-48
2021/08/02 06:58:43;;;;;;;4.60;2.30;;;;;;;16.71;63.83;100969.63;5961979;29;20237;-50
2021/08/02 07:02:06;;;;;;;3.43;1.80;;;;;;;17.11;63.74;100956.94;5966859;29;20331;-47
2021/08/02 07:05:27;;;;;;;8.18;1.90;;;;;;;18.28;60.36;100953.59;5963238;29;20255;-49
2021/08/02 07:08:48;;;;;;;5.65;1.88;;;;;;;17.61;61.78;100962.19;5966444;29;20256;-50
2021/08/02 07:12:09;;;;;;;4.35;1.92;;;;;;;17.41;62.34;100972.56;5943135;29;20247;-46
2021/08/02 07:15:30;;;;;;;6.03;2.22;;;;;;;17.16;63.02;100975.19;5966867;29;22503;-47
2021/08/02 07:18:53;;;;;;;7.63;3.22;;;;;;;17.97;60.67;100969.72;5969872;29;20240;-50
2021/08/02 07:22:14;;;;;;;5.18;2.28;;;;;;;17.83;61.26;100967.53;5959909;29;20240;-48
2021/08/02 07:25:35;;;;;;;4.38;2.40;;;;;;;18.13;59.91;100962.09;5954809;29;20243;-45
2021/08/02 07:28:58;;;;;;;7.57;2.53;;;;;;;18.80;58.40;100969.13;5956039;29;20239;-48
2021/08/02 07:32:19;;;;;;;5.03;2.28;;;;;;;17.79;60.71;100979.09;5966986;29;20240;-47
2021/08/02 07:35:41;;;;;;;3.15;1.90;;;;;;;17.54;60.71;100986.19;5964651;29;20232;-47
2021/08/02 07:39:02;;;;;;;7.97;2.53;;;;;;;16.84;65.51;100995.53;5967593;29;20240;-49
2021/08/02 07:42:23;;;;;;;6.95;2.67;;;;;;;17.25;65.56;101009.09;5966370;29;21067;-46
2021/08/02 07:45:45;;;;;;;3.80;2.05;;;;;;;17.44;64.53;101007.56;5964900;29;20220;-47
2021/08/02 07:49:06;;;;;;;2.92;1.80;;;;;;;17.48;65.48;101003.88;5966154;29;20240;-45
2021/08/02 07:52:30;;;;;;;3.15;1.73;;;;;;;16.99;66.79;100991.56;5968795;29;20240;-48
2021/08/02 07:55:51;;;;;;;5.70;1.88;;;;;;;17.06;66.86;100986.03;5974741;29;20288;-45
2021/08/02 07:59:12;;;;;;;1.63;1.17;;;;;;;17.50;65.30;100980.16;5973103;29;20572;-49
2021/08/02 08:02:33;;;;;;;2.60;1.35;;;;;;;17.41;64.03;100986.63;5957914;29;20318;-48
2021/08/02 08:05:54;;;;;;;2.72;1.92;;;;;;;17.82;63.27;100986.91;5967418;29;20232;-49
2021/08/02 08:09:16;;;;;;;3.60;1.50;;;;;;;17.35;65.28;100980.69;5951429;29;20231;-46
2021/08/02 08:12:38;;;;;;;2.33;2.10;;;;;;;17.90;63.70;100981.38;5967621;29;20243;-50
2021/08/02 08:15:59;;;;;;;4.72;2.67;;;;;;;17.35;64.71;100981.56;5967562;29;20236;-50
2021/08/02 08:19:20;;;;;;;3.65;1.25;;;;;;;17.76;62.76;100979.22;5964124;29;20243;-54
2021/08/02 08:22:41;;;;;;;3.80;2.47;;;;;;;18.74;60.00;100981.69;5956137;29;20260;-49
2021/08/02 08:26:04;;;;;;;7.25;2.45;;;;;;;19.01;59.38;100982.34;5968308;29;20642;-46
2021/08/02 08:29:25;;;;;;;2.65;1.48;;;;;;;18.42;59.22;100973.28;5965057;29;20243;-51
2021/08/02 08:32:45;;;;;;;4.63;2.33;;;;;;;17.96;59.73;100977.66;5966142;29;20241;-47
2021/08/02 08:36:11;;;;;;;4.07;1.33;;;;;;;17.21;59.86;100979.38;5965206;29;20322;-45
2021/08/02 08:39:32;;;;;;;1.90;1.48;;;;;;;18.44;56.97;100980.19;5956313;29;20228;-51
2021/08/02 08:42:54;;;;;;;2.25;1.73;;;;;;;18.78;55.69;100983.25;5958371;29;20247;-51
2021/08/02 08:46:17;;;;;;;5.07;2.40;;;;;;;18.97;55.70;100984.25;5961408;29;20240;-50
2021/08/02 08:49:38;;;;;;;7.18;1.65;;;;;;;18.59;56.26;100997.22;5965827;29;20577;-52
2021/08/02 08:53:00;;;;;;;2.38;1.27;;;;;;;19.13;55.47;100999.47;5961626;29;20239;-48
2021/08/02 08:56:21;;;;;;;3.95;1.60;;;;;;;19.65;54.00;101003.34;5965109;29;20240;-53
2021/08/02 08:59:48;;;;;;;1.75;1.20;;;;;;;19.88;53.37;101000.66;5970245;29;20334;-45
2021/08/02 09:03:10;;;;;;;2.60;1.00;;;;;;;19.99;52.48;101015.09;5966215;29;20243;-49
2021/08/02 09:06:31;;;;;;;2.92;1.33;;;;;;;20.06;53.67;101003.34;5966221;29;20264;-52
2021/08/02 09:09:59;;;;;;;2.97;1.30;;;;;;;19.89;53.04;101010.28;5966697;29;20240;-46
2021/08/02 09:13:30;;;;;;;2.30;1.52;;;;;;;19.68;53.61;101005.03;5964842;29;20251;-46
2021/08/02 09:16:57;;;;;;;4.88;1.60;;;;;;;20.15;52.44;101003.84;5956162;29;20227;-52
2021/08/02 09:20:20;;;;;;;3.38;1.50;;;;;;;20.38;51.79;100998.31;5961352;29;20236;-49
2021/08/02 09:23:52;;;;;;;8.90;2.25;;;;;;;19.99;53.29;100998.41;5971381;29;20625;-49
2021/08/02 09:27:13;;;;;;;2.92;1.40;;;;;;;19.74;54.03;100996.84;5970905;29;20495;-46
2021/08/02 09:30:33;;;;;;;5.32;2.03;;;;;;;19.71;53.72;100996.94;5971688;29;20240;-49
2021/08/02 09:34:01;;;;;;;2.10;1.83;;;;;;;20.93;51.52;100992.19;5971251;29;20247;-48
2021/08/02 09:37:23;;;;;;;2.55;1.50;;;;;;;19.66;51.74;100988.38;5972483;29;20240;-49
2021/08/02 09:40:45;;;;;;;2.53;1.25;;;;;;;20.05;50.96;100984.91;5963717;29;20548;-47
2021/08/02 09:44:07;;;;;;;4.18;1.17;;;;;;;20.17;49.65;100994.91;5970553;29;20514;-49
2021/08/02 09:47:29;;;;;;;3.35;1.35;;;;;;;19.71;50.25;101002.22;5965027;29;20232;-45
2021/08/02 09:50:52;;;;;;;4.03;1.50;;;;;;;20.56;48.03;100980.72;5969314;29;20240;-52
2021/08/02 09:54:23;;;;;;;2.70;1.75;;;;;;;19.97;50.03;100992.31;5974756;29;20518;-53
2021/08/02 09:57:44;;;;;;;1.58;1.48;;;;;;;19.91;50.84;100984.66;5970918;29;20507;-50
2021/08/02 10:01:06;;;;;;;5.43;1.63;;;;;;;19.99;50.44;100995.75;5964978;29;20244;-48
2021/08/02 10:04:30;;;;;;;2.90;1.15;;;;;;;19.11;51.21;100996.03;5967759;29;20228;-49
2021/08/02 10:07:53;;;;;;;1.45;1.35;;;;;;;19.92;49.50;100995.16;5944205;29;20233;-51
2021/08/02 10:11:14;;;;;;;5.15;1.85;;;;;;;19.03;50.06;100998.97;5967906;29;22714;-52
2021/08/02 10:14:35;;;;;;;2.55;1.38;;;;;;;19.27;48.17;100997.13;5970146;29;20331;-47
2021/08/02 10:18:01;;;;;;;1.58;1.33;;;;;;;19.84;45.94;100992.00;5962681;29;20235;-47
2021/08/02 10:21:22;;;;;;;10.32;2.55;;;;;;;20.36;45.62;101004.63;5976669;29;20240;-49
2021/08/02 10:24:48;;;;;;;3.20;1.15;;;;;;;20.58;44.49;100999.16;5971124;29;20247;-48
2021/08/02 10:28:11;;;;;;;4.30;1.20;;;;;;;21.44;44.03;100986.97;5968256;29;20244;-51
2021/08/02 10:31:43;;;;;;;4.00;1.30;;;;;;;20.78;44.35;100985.00;5972379;29;20255;-48
2021/08/02 10:35:05;;;;;;;6.95;1.35;;;;;;;21.08;43.19;100979.13;5965520;29;20247;-49
2021/08/02 10:38:26;;;;;;;1.30;1.10;;;;;;;20.60;43.21;100986.75;5954508;29;20232;-53
2021/08/02 10:41:48;;;;;;;1.58;1.40;;;;;;;20.95;42.35;100998.25;5969327;29;20324;-48
2021/08/02 10:45:10;;;;;;;3.40;1.23;;;;;;;21.56;43.69;100994.31;5966463;29;20503;-52
2021/08/02 10:48:33;;;;;;;4.15;1.35;;;;;;;20.85;46.38;101015.53;5966580;29;20270;-46
2021/08/02 10:51:55;;;;;;;3.00;1.63;;;;;;;20.48;49.50;101035.78;5969503;29;20241;-52
2021/08/02 10:55:17;;;;;;;1.75;1.38;;;;;;;20.00;54.26;101040.59;5972186;29;20240;-48
2021/08/02 10:58:44;;;;;;;3.25;1.00;;;;;;;19.83;53.90;101059.88;5958802;29;20235;-47
2021/08/02 11:02:08;;;;;;;2.33;1.48;;;;;;;19.23;54.93;101057.09;5966374;29;20232;-49
2021/08/02 11:05:32;;;;;;;2.47;1.88;;;;;;;19.07;56.58;101064.75;5975961;29;20308;-50
2021/08/02 11:08:54;;;;;;;4.68;1.50;;;;;;;18.70;56.11;101075.91;5968177;29;20569;-48
2021/08/02 11:12:15;;;;;;;3.03;1.65;;;;;;;18.28;57.64;101082.75;5966162;29;20228;-48
2021/08/02 11:15:43;;;;;;;4.97;1.77;;;;;;;18.65;56.76;101073.44;5971477;29;20243;-50
2021/08/02 11:19:14;;;;;;;2.83;1.60;;;;;;;18.63;56.36;101077.03;5957480;29;20235;-48
2021/08/02 11:22:47;;;;;;;3.83;1.60;;;;;;;18.69;55.76;101075.03;5971427;29;20236;-50
2021/08/02 11:26:09;;;;;;;2.85;1.48;;;;;;;19.30;53.57;101062.13;5966189;29;20255;-47
2021/08/02 11:29:33;;;;;;;3.00;1.55;;;;;;;19.48;52.28;101067.50;5967729;29;20256;-51
2021/08/02 11:32:56;;;;;;;4.22;1.58;;;;;;;19.19;51.81;101068.72;5963506;29;20525;-51
2021/08/02 11:36:18;;;;;;;2.00;1.65;;;;;;;18.58;53.42;101071.97;5979090;29;20244;-47
2021/08/02 11:39:41;;;;;;;5.20;1.75;;;;;;;18.71;53.12;101072.34;5967457;29;20240;-53
2021/08/02 11:43:02;;;;;;;4.15;1.88;;;;;;;18.87;54.02;101070.00;5970829;29;20260;-49
2021/08/02 11:46:24;;;;;;;3.33;2.10;;;;;;;18.70;53.83;101076.75;5967303;29;20256;-48
2021/08/02 11:49:47;;;;;;;5.05;2.22;;;;;;;18.81;52.43;101099.28;5972679;29;20231;-46
2021/08/02 11:53:09;;;;;;;2.22;1.50;;;;;;;19.41;52.18;101092.44;5972963;29;20310;-52
2021/08/02 11:56:33;;;;;;;5.13;1.95;;;;;;;19.51;51.81;101094.69;5950020;29;20231;-49
2021/08/02 11:59:56;;;;;;;2.47;1.60;;;;;;;19.79;50.29;101089.13;5971776;29;20255;-54
2021/08/02 12:03:20;;;;;;;2.72;1.73;;;;;;;20.43;49.52;101095.97;5968167;29;20304;-49
2021/08/02 12:06:50;;;;;;;3.78;2.22;;;;;;;19.29;52.37;101100.88;5972207;29;20255;-49
2021/08/02 12:10:13;;;;;;;3.53;1.50;;;;;;;19.93;50.45;101088.50;5970477;29;20271;-49
2021/08/02 12:13:41;;;;;;;6.43;2.05;;;;;;;20.24;49.85;101091.53;5968008;29;20255;-48
2021/08/02 12:17:04;;;;;;;5.75;1.52;;;;;;;20.47;49.65;101086.94;5965844;29;20240;-50
2021/08/02 12:20:30;;;;;;;3.25;1.90;;;;;;;20.20;50.13;101089.94;5969501;29;20679;-50
2021/08/02 12:24:03;;;;;;;3.78;1.70;;;;;;;18.95;54.60;101093.44;5969686;29;20565;-50
2021/08/02 12:27:26;;;;;;;4.03;2.50;;;;;;;19.45;53.26;101094.03;5969681;29;20319;-50
2021/08/02 12:30:58;;;;;;;4.63;2.60;;;;;;;19.52;53.81;101096.41;5978900;29;20239;-49
2021/08/02 12:34:19;;;;;;;4.20;2.30;;;;;;;19.01;55.08;101091.41;5964217;29;20623;-50
2021/08/02 12:37:40;;;;;;;4.10;2.03;;;;;;;19.53;54.14;101100.78;5973409;29;20603;-52
2021/08/02 12:41:05;;;;;;;5.38;2.03;;;;;;;19.54;53.71;101089.28;5965306;29;20240;-51
2021/08/02 12:44:26;;;;;;;4.50;1.92;;;;;;;19.17;55.10;101096.06;5971756;29;20240;-51
2021/08/02 12:47:49;;;;;;;2.72;1.75;;;;;;;19.84;54.03;101092.44;5976767;29;20264;-52
2021/08/02 12:51:10;;;;;;;4.40;1.88;;;;;;;19.27;56.81;101092.16;5971749;29;20327;-46
2021/08/02 12:54:31;;;;;;;4.40;1.60;;;;;;;19.27;57.57;101103.56;5976802;29;20828;-45
2021/08/02 12:57:52;;;;;;;5.53;2.15;;;;;;;19.47;59.04;101099.25;5969499;29;20235;-49
2021/08/02 13:01:14;;;;;;;3.85;1.65;;;;;;;19.73;58.47;101092.03;5972102;29;20513;-50
2021/08/02 13:04:35;;;;;;;3.22;1.73;;;;;;;20.20;58.32;101089.06;5970626;29;20227;-50
2021/08/02 13:07:57;;;;;;;4.18;2.22;;;;;;;20.04;58.10;101091.53;5971051;29;20240;-52
2021/08/02 13:11:17;;;;;;;3.50;1.65;;;;;;;19.99;56.72;101093.56;5972043;29;20263;-47
2021/08/02 13:14:40;;;;;;;5.10;2.33;;;;;;;20.21;56.93;101085.50;5977356;29;20236;-51
2021/08/02 13:18:01;;;;;;;4.88;2.38;;;;;;;19.88;57.05;101087.88;5969966;29;20367;-50
2021/08/02 13:21:21;;;;;;;5.03;2.17;;;;;;;19.84;56.79;101085.34;5969493;29;20619;-49
2021/08/02 13:28:21;;;;;;;7.78;2.28;;;;;;;18.63;58.46;101085.84;5972770;29;20240;-47
2021/08/02 13:31:46;;;;;;;5.07;1.73;;;;;;;19.28;57.21;101088.59;5971766;29;20883;-46
2021/08/02 13:35:08;;;;;;;3.03;1.77;;;;;;;19.71;57.01;101081.50;5971395;29;20585;-48
2021/08/02 13:38:28;;;;;;;3.85;1.83;;;;;;;19.52;56.67;101083.19;5969414;29;20248;-46
2021/08/02 13:41:49;;;;;;;4.72;1.60;;;;;;;20.15;55.14;101081.34;5968912;29;20521;-48
2021/08/02 13:45:10;;;;;;;7.18;1.85;;;;;;;22.29;48.63;101078.00;5965873;29;20243;-52
2021/08/02 13:48:33;;;;;;;3.88;1.50;;;;;;;23.96;44.76;101072.88;5966446;29;20493;-47
2021/08/02 13:51:55;;;;;;;3.35;1.55;;;;;;;27.45;36.85;101065.09;5969318;29;20691;-51
2021/08/02 13:55:16;;;;;;;2.25;0.90;;;;;;;24.48;41.22;101077.59;5972923;29;20282;-46
2021/08/02 13:58:38;;;;;;;5.43;1.88;;;;;;;23.44;43.36;101068.88;5970782;29;20332;-53
2021/08/02 14:01:59;;;;;;;2.95;1.13;;;;;;;22.59;46.39;101068.38;5970777;29;20844;-53
2021/08/02 14:05:23;;;;;;;4.30;1.85;;;;;;;21.05;49.54;101070.13;5967216;29;20243;-52
2021/08/02 14:08:44;;;;;;;4.72;2.30;;;;;;;21.38;50.28;101070.28;5967154;29;20236;-52
2021/08/02 14:12:08;;;;;;;3.05;2.03;;;;;;;21.24;51.31;101073.59;5969641;29;20502;-48
2021/08/02 14:15:34;;;;;;;3.88;1.70;;;;;;;20.65;54.10;101078.22;5970591;29;20354;-49
2021/08/02 14:19:04;;;;;;;3.95;1.52;;;;;;;19.97;55.95;101083.03;5967683;29;20244;-48
2021/08/02 14:22:27;;;;;;;2.67;2.20;;;;;;;20.06;55.56;101082.66;5971990;29;20312;-52
2021/08/02 14:25:48;;;;;;;3.45;1.20;;;;;;;20.27;55.97;101074.66;5970480;29;20844;-52
2021/08/02 14:29:10;;;;;;;3.75;1.70;;;;;;;20.25;56.10;101087.94;5966455;29;20240;-54
2021/08/02 14:32:33;;;;;;;3.05;1.35;;;;;;;20.54;55.43;101079.59;5964188;29;20725;-51
2021/08/02 14:35:54;;;;;;;2.55;1.23;;;;;;;20.62;54.19;101080.13;5966996;29;20819;-55
2021/08/02 14:39:17;;;;;;;3.55;1.90;;;;;;;20.77;54.95;101078.56;5954500;29;20240;-54
2021/08/02 14:42:42;;;;;;;2.72;1.77;;;;;;;20.60;53.34;101069.63;5965553;29;20229;-52
2021/08/02 14:46:04;;;;;;;2.05;1.13;;;;;;;20.56;54.07;101078.59;5964252;29;20228;-51
2021/08/02 14:49:29;;;;;;;2.10;1.10;;;;;;;20.58;54.46;101073.25;5968984;29;20236;-51
2021/08/02 14:52:50;;;;;;;4.97;1.77;;;;;;;20.78;52.29;101069.69;5967076;29;20634;-53
2021/08/02 14:56:13;;;;;;;1.73;1.27;;;;;;;20.42;53.17;101079.25;5964589;29;20358;-47
2021/08/02 14:59:34;;;;;;;2.83;1.35;;;;;;;21.08;51.57;101077.09;5968847;29;20232;-51
2021/08/02 15:02:59;;;;;;;2.80;1.95;;;;;;;21.83;49.42;101075.97;5968324;29;20244;-48
2021/08/02 15:06:20;;;;;;;2.97;1.20;;;;;;;22.48;48.11;101069.91;5966058;29;20607;-53
2021/08/02 15:09:44;;;;;;;3.90;1.67;;;;;;;22.04;48.00;101073.97;5967733;29;20267;-53
2021/08/02 15:13:06;;;;;;;4.75;1.30;;;;;;;21.38;48.69;101072.94;5969381;29;20537;-51
2021/08/02 15:16:30;;;;;;;4.03;1.15;;;;;;;21.54;48.53;101080.09;5970307;29;20252;-50
2021/08/02 15:19:58;;;;;;;4.60;1.73;;;;;;;21.19;48.86;101074.75;5962125;29;20232;-53
2021/08/02 15:23:19;;;;;;;1.35;1.10;;;;;;;21.27;46.74;101077.00;5951832;29;20679;-51
2021/08/02 15:26:43;;;;;;;0.85;0.85;;;;;;;21.12;43.79;101076.84;5969458;29;20258;-51
2021/08/02 15:30:08;;;;;;;1.20;0.63;;;;;;;21.04;43.67;101077.22;5972934;29;20635;-52
2021/08/02 15:33:30;;;;;;;1.65;0.93;;;;;;;21.85;43.43;101078.53;5975026;29;21694;-52
2021/08/02 15:36:51;;;;;;;3.72;0.98;;;;;;;20.87;45.10;101081.63;5977927;29;20239;-52
2021/08/02 15:40:15;;;;;;;2.25;0.90;;;;;;;20.60;47.86;101087.28;5982755;29;20244;-53
2021/08/02 15:43:38;;;;;;;2.55;1.00;;;;;;;21.02;47.48;101073.78;5974577;29;21057;-50
2021/08/02 15:47:01;;;;;;;3.28;1.05;;;;;;;21.09;48.15;101095.53;5978650;29;20547;-52